Time,TemperatureF,DewpointF,PressureIn,WindDirection,WindDirectionDegrees,WindSpeedMPH,WindSpeedGustMPH,Humidity,HourlyPrecipIn,Conditions,Clouds,dailyrainin,SoftwareType,DateUTC
2013-06-14 00:02:00,78.0,71.0,29.62,South,177,2.0,-999.0,78,0.00,,,0.00,,2013-06-14 05:02:00,
2013-06-14 00:11:00,78.0,71.0,29.62,SSW,211,2.0,-999.0,80,0.00,,,0.00,,2013-06-14 05:11:00,
2013-06-14 00:22:00,77.0,70.0,29.62,SSW,211,0.0,-999.0,80,0.00,,,0.00,,2013-06-14 05:22:00,
2013-06-14 00:33:00,77.0,71.0,29.62,SW,215,0.0,-999.0,81,0.00,,,0.00,,2013-06-14 05:33:00,
2013-06-14 00:43:00,77.0,71.0,29.62,SW,215,0.0,-999.0,81,0.00,,,0.00,,2013-06-14 05:43:00,
2013-06-14 00:52:00,77.0,70.0,29.62,SW,215,0.0,-999.0,80,0.00,,,0.00,,2013-06-14 05:52:00,
2013-06-14 01:02:00,77.0,71.0,29.61,SW,215,0.0,-999.0,81,0.00,,,0.00,,2013-06-14 06:02:00,
2013-06-14 01:12:00,77.0,71.0,29.61,WSW,237,1.0,-999.0,81,0.00,,,0.00,,2013-06-14 06:12:00,
2013-06-14 01:22:00,77.0,71.0,29.61,SW,236,0.0,-999.0,81,0.00,,,0.00,,2013-06-14 06:22:00,
2013-06-14 01:33:00,77.0,71.0,29.61,SW,236,0.0,-999.0,81,0.00,,,0.00,,2013-06-14 06:33:00,
2013-06-14 01:43:00,77.0,71.0,29.61,SW,236,0.0,-999.0,81,0.00,,,0.00,,2013-06-14 06:43:00,
2013-06-14 01:52:00,77.0,71.0,29.61,SW,219,0.0,-999.0,82,0.00,,,0.00,,2013-06-14 06:52:00,
2013-06-14 02:02:00,77.0,71.0,29.61,SW,219,0.0,-999.0,82,0.00,,,0.00,,2013-06-14 07:02:00,
2013-06-14 02:12:00,76.0,70.0,29.61,SW,219,0.0,-999.0,82,0.00,,,0.00,,2013-06-14 07:12:00,
2013-06-14 02:22:00,76.0,70.0,29.61,SW,219,0.0,-999.0,83,0.00,,,0.00,,2013-06-14 07:22:00,
2013-06-14 02:33:00,76.0,70.0,29.60,SW,219,0.0,-999.0,83,0.00,,,0.00,,2013-06-14 07:33:00,
2013-06-14 02:43:00,76.0,70.0,29.60,SW,219,0.0,-999.0,83,0.00,,,0.00,,2013-06-14 07:43:00,
2013-06-14 02:53:00,75.0,70.0,29.60,SW,219,0.0,-999.0,84,0.00,,,0.00,,2013-06-14 07:53:00,
2013-06-14 03:02:00,75.0,70.0,29.60,SW,219,0.0,-999.0,84,0.00,,,0.00,,2013-06-14 08:02:00,
2013-06-14 03:12:00,74.0,69.0,29.60,SW,219,0.0,-999.0,85,0.00,,,0.00,,2013-06-14 08:12:00,
2013-06-14 03:22:00,74.0,70.0,29.60,SW,219,0.0,-999.0,86,0.00,,,0.00,,2013-06-14 08:22:00,
2013-06-14 03:33:00,74.0,70.0,29.60,SW,219,0.0,-999.0,86,0.00,,,0.00,,2013-06-14 08:33:00,
2013-06-14 03:43:00,73.0,69.0,29.59,SW,219,0.0,-999.0,87,0.00,,,0.00,,2013-06-14 08:43:00,
2013-06-14 03:53:00,73.0,69.0,29.59,SW,219,0.0,-999.0,87,0.00,,,0.00,,2013-06-14 08:53:00,
2013-06-14 04:02:00,73.0,69.0,29.59,SW,219,0.0,-999.0,87,0.00,,,0.00,,2013-06-14 09:02:00,
2013-06-14 04:12:00,73.0,69.0,29.60,SW,219,0.0,-999.0,87,0.00,,,0.00,,2013-06-14 09:12:00,
2013-06-14 04:22:00,73.0,69.0,29.60,SW,219,0.0,-999.0,87,0.00,,,0.00,,2013-06-14 09:22:00,
2013-06-14 04:33:00,73.0,69.0,29.60,SW,219,0.0,-999.0,87,0.00,,,0.00,,2013-06-14 09:33:00,
2013-06-14 04:43:00,73.0,69.0,29.60,SW,219,0.0,-999.0,88,0.00,,,0.00,,2013-06-14 09:43:00,
2013-06-14 04:52:00,73.0,69.0,29.61,SW,219,0.0,-999.0,88,0.00,,,0.00,,2013-06-14 09:52:00,
2013-06-14 05:01:00,74.0,70.0,29.61,SW,219,0.0,-999.0,88,0.00,,,0.00,,2013-06-14 10:01:00,
2013-06-14 05:11:00,74.0,70.0,29.62,SW,219,0.0,-999.0,88,0.00,,,0.00,,2013-06-14 10:11:00,
2013-06-14 05:22:00,74.0,-99.9,-100.00,SW,219,0.0,-999.0,-999,-99.99,,,-99.99,,2013-06-14 10:22:00,
2013-06-14 05:34:00,74.0,70.0,29.62,SW,219,0.0,-999.0,87,0.00,,,0.00,,2013-06-14 10:34:00,
2013-06-14 05:43:00,74.0,70.0,29.61,SW,219,0.0,-999.0,87,0.00,,,0.00,,2013-06-14 10:43:00,
2013-06-14 05:52:00,74.0,70.0,29.62,SW,219,0.0,-999.0,87,0.00,,,0.00,,2013-06-14 10:52:00,
2013-06-14 06:02:00,74.0,70.0,29.62,SW,219,0.0,-999.0,87,0.00,,,0.00,,2013-06-14 11:02:00,
2013-06-14 06:11:00,74.0,70.0,29.62,SW,219,0.0,-999.0,87,0.00,,,0.00,,2013-06-14 11:11:00,
2013-06-14 06:22:00,74.0,70.0,29.63,SW,219,1.0,-999.0,88,0.00,,,0.00,,2013-06-14 11:22:00,
2013-06-14 06:32:00,74.0,70.0,29.63,SW,219,0.0,-999.0,88,0.00,,,0.00,,2013-06-14 11:32:00,
2013-06-14 06:43:00,74.0,70.0,29.63,SW,219,0.0,-999.0,88,0.00,,,0.00,,2013-06-14 11:43:00,
2013-06-14 06:52:00,74.0,70.0,29.63,SW,219,0.0,-999.0,88,0.00,,,0.00,,2013-06-14 11:52:00,
2013-06-14 07:01:00,74.0,70.0,29.63,SW,219,0.0,-999.0,88,0.00,,,0.00,,2013-06-14 12:01:00,
2013-06-14 07:11:00,74.0,70.0,29.63,SW,219,0.0,-999.0,88,0.00,,,0.00,,2013-06-14 12:11:00,
2013-06-14 07:22:00,75.0,72.0,29.64,SW,219,0.0,-999.0,89,0.00,,,0.00,,2013-06-14 12:22:00,
2013-06-14 07:32:00,75.0,72.0,29.64,SW,219,0.0,-999.0,89,0.00,,,0.00,,2013-06-14 12:32:00,
2013-06-14 07:43:00,75.0,72.0,29.64,SW,219,0.0,-999.0,89,0.00,,,0.00,,2013-06-14 12:43:00,
2013-06-14 07:52:00,75.0,72.0,29.64,SW,219,0.0,-999.0,89,0.00,,,0.00,,2013-06-14 12:52:00,
2013-06-14 08:02:00,75.0,72.0,29.64,SW,219,0.0,-999.0,89,0.00,,,0.00,,2013-06-14 13:02:00,
2013-06-14 08:11:00,76.0,73.0,29.65,SW,219,0.0,-999.0,89,0.00,,,0.00,,2013-06-14 13:11:00,
2013-06-14 08:22:00,76.0,73.0,29.65,SW,219,0.0,-999.0,89,0.00,,,0.00,,2013-06-14 13:22:00,
2013-06-14 08:33:00,77.0,73.0,29.65,SW,219,0.0,-999.0,88,0.00,,,0.00,,2013-06-14 13:33:00,
2013-06-14 08:43:00,77.0,73.0,29.65,SW,217,1.0,-999.0,88,0.00,,,0.00,,2013-06-14 13:43:00,
2013-06-14 08:52:00,78.0,74.0,29.65,SE,129,0.0,-999.0,87,0.00,,,0.00,,2013-06-14 13:52:00,
2013-06-14 09:02:00,78.0,74.0,29.65,ESE,115,0.0,-999.0,87,0.00,,,0.00,,2013-06-14 14:02:00,
2013-06-14 09:12:00,78.0,-99.9,-100.00,ESE,111,0.0,-999.0,-999,-99.99,,,-99.99,,2013-06-14 14:12:00,
2013-06-14 09:22:00,77.0,73.0,29.65,East,94,0.0,-999.0,88,0.00,,,0.00,,2013-06-14 14:22:00,
2013-06-14 09:34:00,77.0,73.0,29.65,East,86,1.0,-999.0,88,0.00,,,0.00,,2013-06-14 14:34:00,
2013-06-14 09:43:00,78.0,74.0,29.65,ESE,105,0.0,-999.0,88,0.00,,,0.00,,2013-06-14 14:43:00,
2013-06-14 09:52:00,78.0,-99.9,-100.00,South,169,2.0,-999.0,-999,0.00,,,-99.99,,2013-06-14 14:52:00,
2013-06-14 10:01:00,79.0,74.0,29.65,East,88,0.0,-999.0,86,0.00,,,0.00,,2013-06-14 15:01:00,
2013-06-14 10:11:00,79.0,74.0,29.65,SSE,157,1.0,-999.0,84,0.00,,,0.00,,2013-06-14 15:11:00,
2013-06-14 10:23:00,80.0,74.0,29.64,SSW,194,4.0,-999.0,83,0.00,,,0.00,,2013-06-14 15:23:00,
2013-06-14 10:33:00,81.0,74.0,29.64,SSW,211,5.0,-999.0,80,0.00,,,0.00,,2013-06-14 15:33:00,
2013-06-14 10:43:00,81.0,74.0,29.65,SSE,162,2.0,-999.0,79,0.00,,,0.00,,2013-06-14 15:43:00,
2013-06-14 10:52:00,82.0,75.0,29.65,SSE,154,0.0,-999.0,79,0.00,,,0.00,,2013-06-14 15:52:00,
2013-06-14 11:01:00,82.0,75.0,29.65,SSE,154,0.0,-999.0,79,0.00,,,0.00,,2013-06-14 16:01:00,
2013-06-14 11:11:00,82.0,73.0,29.64,SE,126,0.0,-999.0,75,0.00,,,0.00,,2013-06-14 16:11:00,
2013-06-14 11:22:00,82.0,73.0,29.65,SSE,147,0.0,-999.0,74,0.00,,,0.00,,2013-06-14 16:22:00,
2013-06-14 11:32:00,82.0,73.0,29.64,SSE,161,1.0,-999.0,74,0.00,,,0.00,,2013-06-14 16:32:00,
2013-06-14 11:43:00,82.0,73.0,29.64,SSE,161,1.0,-999.0,74,0.00,,,0.00,,2013-06-14 16:43:00,
2013-06-14 11:52:00,83.0,73.0,29.64,SW,225,2.0,-999.0,73,0.00,,,0.00,,2013-06-14 16:52:00,
2013-06-14 12:02:00,83.0,73.0,29.64,SW,225,2.0,-999.0,73,0.00,,,0.00,,2013-06-14 17:02:00,
2013-06-14 12:11:00,84.0,73.0,29.64,SW,218,4.0,-999.0,69,0.00,,,0.00,,2013-06-14 17:11:00,
2013-06-14 12:22:00,84.0,73.0,29.63,ESE,117,2.0,-999.0,69,0.00,,,0.00,,2013-06-14 17:22:00,
2013-06-14 12:34:00,84.0,73.0,29.64,SW,224,4.0,-999.0,69,0.00,,,0.00,,2013-06-14 17:34:00,
2013-06-14 12:43:00,84.0,73.0,29.63,SSW,210,0.0,-999.0,70,0.00,,,0.00,,2013-06-14 17:43:00,
2013-06-14 12:53:00,84.0,73.0,29.63,SSW,194,2.0,-999.0,70,0.00,,,0.00,,2013-06-14 17:53:00,
2013-06-14 13:02:00,84.0,73.0,29.62,SW,219,2.0,-999.0,69,0.00,,,0.00,,2013-06-14 18:02:00,
2013-06-14 13:11:00,84.0,72.0,29.62,South,173,2.0,-999.0,68,0.00,,,0.00,,2013-06-14 18:11:00,
2013-06-14 13:22:00,86.0,73.0,29.63,SSW,210,3.0,-999.0,66,0.00,,,0.00,,2013-06-14 18:22:00,
2013-06-14 13:32:00,87.0,74.0,29.62,SE,136,1.0,-999.0,65,0.00,,,0.00,,2013-06-14 18:32:00,
2013-06-14 13:42:00,87.0,73.0,29.62,West,265,1.0,-999.0,64,0.00,,,0.00,,2013-06-14 18:42:00,
2013-06-14 13:52:00,87.0,73.0,29.62,SSW,213,0.0,-999.0,63,0.00,,,0.00,,2013-06-14 18:52:00,
2013-06-14 14:01:00,87.0,72.0,29.62,SE,140,1.0,-999.0,62,0.00,,,0.00,,2013-06-14 19:01:00,
2013-06-14 14:11:00,87.0,71.0,29.62,East,86,0.0,-999.0,59,0.00,,,0.00,,2013-06-14 19:11:00,
2013-06-14 14:21:00,88.0,73.0,29.62,East,82,0.0,-999.0,61,0.00,,,0.00,,2013-06-14 19:21:00,
2013-06-14 14:32:00,88.0,71.0,29.61,SE,133,2.0,-999.0,58,0.00,,,0.00,,2013-06-14 19:32:00,
2013-06-14 14:43:00,88.0,72.0,29.61,South,186,1.0,-999.0,59,0.00,,,0.00,,2013-06-14 19:43:00,
2013-06-14 14:53:00,88.0,72.0,29.60,ESE,119,1.0,-999.0,60,0.00,,,0.00,,2013-06-14 19:53:00,
2013-06-14 15:01:00,88.0,73.0,29.60,East,86,0.0,-999.0,61,0.00,,,0.00,,2013-06-14 20:01:00,
2013-06-14 15:11:00,88.0,72.0,29.59,SE,131,3.0,-999.0,60,0.00,,,0.00,,2013-06-14 20:11:00,
2013-06-14 15:22:00,89.0,73.0,29.59,ESE,115,1.0,-999.0,59,0.00,,,0.00,,2013-06-14 20:22:00,
2013-06-14 15:33:00,89.0,73.0,29.59,East,80,5.0,-999.0,59,0.00,,,0.00,,2013-06-14 20:33:00,
2013-06-14 15:43:00,89.0,73.0,29.59,East,92,2.0,-999.0,59,0.00,,,0.00,,2013-06-14 20:43:00,
2013-06-14 15:53:00,87.0,72.0,29.59,SE,133,0.0,-999.0,61,0.00,,,0.00,,2013-06-14 20:53:00,
2013-06-14 16:02:00,87.0,72.0,29.58,ESE,103,1.0,-999.0,61,0.00,,,0.00,,2013-06-14 21:02:00,
2013-06-14 16:11:00,87.0,72.0,29.58,ESE,103,1.0,-999.0,61,0.00,,,0.00,,2013-06-14 21:11:00,
2013-06-14 16:22:00,87.0,72.0,29.58,SSE,154,1.0,-999.0,61,0.00,,,0.00,,2013-06-14 21:22:00,
2013-06-14 16:34:00,87.0,72.0,29.58,South,188,0.0,-999.0,61,0.00,,,0.00,,2013-06-14 21:34:00,
2013-06-14 16:42:00,87.0,73.0,29.58,SSE,161,0.0,-999.0,63,0.00,,,0.00,,2013-06-14 21:42:00,
2013-06-14 16:52:00,87.0,73.0,29.58,SW,233,3.0,-999.0,63,0.00,,,0.00,,2013-06-14 21:52:00,
2013-06-14 17:01:00,86.0,73.0,29.57,SW,224,0.0,-999.0,66,0.00,,,0.00,,2013-06-14 22:01:00,
2013-06-14 17:11:00,86.0,73.0,29.57,SW,234,0.0,-999.0,66,0.00,,,0.00,,2013-06-14 22:11:00,
2013-06-14 17:22:00,86.0,73.0,29.57,SW,218,0.0,-999.0,66,0.00,,,0.00,,2013-06-14 22:22:00,
2013-06-14 17:33:00,85.0,72.0,29.57,SW,218,0.0,-999.0,66,0.00,,,0.00,,2013-06-14 22:33:00,
2013-06-14 17:43:00,85.0,73.0,29.57,SW,218,0.0,-999.0,67,0.00,,,0.00,,2013-06-14 22:43:00,
2013-06-14 17:52:00,86.0,74.0,29.56,SW,218,0.0,-999.0,67,0.00,,,0.00,,2013-06-14 22:52:00,
2013-06-14 18:01:00,86.0,74.0,29.56,SW,218,0.0,-999.0,67,0.00,,,0.00,,2013-06-14 23:01:00,
2013-06-14 18:11:00,86.0,74.0,29.56,SW,219,1.0,-999.0,68,0.00,,,0.00,,2013-06-14 23:11:00,
2013-06-14 18:22:00,86.0,74.0,29.56,SW,233,0.0,-999.0,67,0.00,,,0.00,,2013-06-14 23:22:00,
2013-06-14 18:33:00,86.0,74.0,29.56,SW,231,0.0,-999.0,67,0.00,,,0.00,,2013-06-14 23:33:00,
2013-06-14 18:43:00,86.0,74.0,29.56,SW,220,0.0,-999.0,68,0.00,,,0.00,,2013-06-14 23:43:00,
2013-06-14 18:52:00,86.0,74.0,29.56,SW,220,0.0,-999.0,68,0.00,,,0.00,,2013-06-14 23:52:00,
2013-06-14 19:01:00,86.0,74.0,29.56,SW,221,0.0,-999.0,68,0.00,,,0.00,,2013-06-15 00:01:00,
2013-06-14 19:11:00,86.0,73.0,29.56,SW,221,0.0,-999.0,66,0.00,,,0.00,,2013-06-15 00:11:00,
2013-06-14 19:22:00,86.0,73.0,29.56,SW,222,0.0,-999.0,66,0.00,,,0.00,,2013-06-15 00:22:00,
2013-06-14 19:34:00,86.0,74.0,29.56,SW,222,0.0,-999.0,67,0.00,,,0.00,,2013-06-15 00:34:00,
2013-06-14 19:43:00,86.0,73.0,29.56,SW,222,0.0,-999.0,66,0.00,,,0.00,,2013-06-15 00:43:00,
2013-06-14 19:52:00,86.0,74.0,29.56,SW,222,0.0,-999.0,68,0.00,,,0.00,,2013-06-15 00:52:00,
2013-06-14 20:01:00,85.0,74.0,29.56,SW,222,0.0,-999.0,70,0.00,,,0.00,,2013-06-15 01:01:00,
2013-06-14 20:11:00,84.0,74.0,29.56,SW,222,0.0,-999.0,72,0.00,,,0.00,,2013-06-15 01:11:00,
2013-06-14 20:22:00,83.0,73.0,29.56,SW,222,0.0,-999.0,73,0.00,,,0.00,,2013-06-15 01:22:00,
2013-06-14 20:33:00,83.0,73.0,29.56,SW,222,0.0,-999.0,73,0.00,,,0.00,,2013-06-15 01:33:00,
2013-06-14 20:43:00,83.0,74.0,29.56,SW,222,0.0,-999.0,75,0.00,,,0.00,,2013-06-15 01:43:00,
2013-06-14 20:54:00,82.0,73.0,29.56,SW,222,0.0,-999.0,75,0.00,,,0.00,,2013-06-15 01:54:00,
2013-06-14 21:02:00,82.0,74.0,29.56,SW,222,0.0,-999.0,76,0.00,,,0.00,,2013-06-15 02:02:00,
2013-06-14 21:11:00,81.0,73.0,29.57,SW,222,0.0,-999.0,76,0.00,,,0.00,,2013-06-15 02:11:00,
2013-06-14 21:22:00,81.0,73.0,29.57,SW,222,0.0,-999.0,77,0.00,,,0.00,,2013-06-15 02:22:00,
2013-06-14 21:33:00,80.0,72.0,29.57,SW,222,0.0,-999.0,78,0.00,,,0.00,,2013-06-15 02:33:00,
2013-06-14 21:43:00,80.0,72.0,29.57,SW,222,0.0,-999.0,78,0.00,,,0.00,,2013-06-15 02:43:00,
2013-06-14 21:53:00,80.0,73.0,29.57,SW,222,0.0,-999.0,79,0.00,,,0.00,,2013-06-15 02:53:00,
2013-06-14 22:01:00,80.0,73.0,29.57,SW,222,0.0,-999.0,79,0.00,,,0.00,,2013-06-15 03:01:00,
2013-06-14 22:11:00,79.0,72.0,29.57,SW,222,0.0,-999.0,80,0.00,,,0.00,,2013-06-15 03:11:00,
2013-06-14 22:23:00,79.0,72.0,29.58,SW,222,0.0,-999.0,80,0.00,,,0.00,,2013-06-15 03:23:00,
2013-06-14 22:32:00,79.0,73.0,29.58,SW,222,0.0,-999.0,81,0.00,,,0.00,,2013-06-15 03:32:00,
2013-06-14 22:43:00,79.0,73.0,29.58,SW,222,0.0,-999.0,81,0.00,,,0.00,,2013-06-15 03:43:00,
2013-06-14 22:52:00,79.0,73.0,29.59,SW,222,0.0,-999.0,81,0.00,,,0.00,,2013-06-15 03:52:00,
2013-06-14 23:01:00,79.0,73.0,29.59,SW,222,0.0,-999.0,82,0.00,,,0.00,,2013-06-15 04:01:00,
2013-06-14 23:11:00,79.0,73.0,29.59,SW,222,0.0,-999.0,82,0.00,,,0.00,,2013-06-15 04:11:00,
2013-06-14 23:22:00,79.0,73.0,29.59,SW,222,0.0,-999.0,82,0.00,,,0.00,,2013-06-15 04:22:00,
2013-06-14 23:34:00,78.0,72.0,29.59,SW,222,0.0,-999.0,82,0.00,,,0.00,,2013-06-15 04:34:00,
2013-06-14 23:43:00,78.0,72.0,29.59,SW,222,0.0,-999.0,82,0.00,,,0.00,,2013-06-15 04:43:00,
2013-06-14 23:53:00,78.0,72.0,29.60,SW,222,0.0,-999.0,83,0.00,,,0.00,,2013-06-15 04:53:00,